Levanto — 9HAH9 — position and weather

sailwx.info

Track history (hours):
 
Tides and Currents Weather Stations Pressure Air Temp Water Temp Dewpoint Dewpoint Depression Visibility Wind Speed Wind Dir Waves Ship Positions

Levanto

Last reported at 2018-Aug-15 00:27 UTC. Time now 2018-Aug-15 03:00 UTC.
Position N 36°22' W 025°60'.

Length 225 m; draft 7.5 m.

Type: Cargo ship. MMSI: 249900000.

Date/timePositionNaut miles runAvg speedWind from/ knotsBaromVisibWave heightAir tempDewpointWater temp
2018-Aug-15 00:27N 36°22' W 025°60'613.6
2018-Aug-14 23:59N 36°22' W 025°52'713.8
2018-Aug-14 23:30N 36°23' W 025°44'713.2
2018-Aug-14 23:00N 36°23' W 025°35'713.6
2018-Aug-14 22:30N 36°23' W 025°27'713.7
2018-Aug-14 22:00N 36°23' W 025°18'713.9
2018-Aug-14 21:30N 36°24' W 025°10'713.7
2018-Aug-14 21:00N 36°24' W 025°01'713.5
2018-Aug-14 20:30N 36°24' W 024°53'713.6
2018-Aug-14 20:00N 36°24' W 024°44'713.5
2018-Aug-14 19:30N 36°25' W 024°36'713.3
2018-Aug-14 19:00N 36°25' W 024°28'713.4
2018-Aug-14 18:30N 36°25' W 024°19'713.3
2018-Aug-14 18:00N 36°25' W 024°11'713.2
2018-Aug-14 17:29N 36°26' W 024°03'2213.2
2018-Aug-14 15:47N 36°26' W 023°35'1113.3
2018-Aug-14 14:57N 36°27' W 023°21'813.3
2018-Aug-14 14:19N 36°27' W 023°11'613.1
2018-Aug-14 13:50N 36°28' W 023°03'513.4
2018-Aug-14 13:30N 36°28' W 022°57'713.3
2018-Aug-14 12:58N 36°28' W 022°48'613.4
2018-Aug-14 12:30N 36°28' W 022°41'813.0
2018-Aug-14 11:52N 36°28' W 022°31'513.1
2018-Aug-14 11:30N 36°29' W 022°25'813.0
2018-Aug-14 10:53N 36°29' W 022°15'513.1
2018-Aug-14 10:29N 36°29' W 022°08'613.2
2018-Aug-14 09:59N 36°29' W 021°60'3013.2
2018-Aug-14 07:43N 36°31' W 021°23'313.5
2018-Aug-14 07:30N 36°31' W 021°19'35613.2
2018-Aug-13 04:27N 36°13' W 013°57'15912.9
2018-Aug-12 16:04N 36°02' W 010°41'612.3
2018-Aug-12 15:36N 36°02' W 010°33'112.3
2018-Aug-12 15:30N 36°02' W 010°32'712.5
2018-Aug-12 14:57N 36°01' W 010°23'612.5
2018-Aug-12 14:28N 36°01' W 010°16'612.0
2018-Aug-12 13:59N 36°00' W 010°09'612.1
2018-Aug-12 13:29N 36°00' W 010°01'711.8
2018-Aug-12 12:53N 35°60' W 009°53'411.6
2018-Aug-12 12:30N 35°60' W 009°47'611.7
2018-Aug-12 12:00N 35°59' W 009°40'611.5
2018-Aug-12 11:29N 35°59' W 009°33'611.7
2018-Aug-12 11:00N 35°59' W 009°26'611.9
2018-Aug-12 10:28N 35°59' W 009°18'811.8
2018-Aug-12 09:46N 35°59' W 009°08'411.8
2018-Aug-12 09:23N 35°59' W 009°02'16013.2
2018-Aug-11 21:16N 35°57' W 005°44'513.0
2018-Aug-11 20:55N 35°57' W 005°38'512.0
2018-Aug-11 20:29N 35°58' W 005°32'510.4
2018-Aug-11 20:00N 35°60' W 005°26'5 9.4
2018-Aug-11 19:31N 36°01' W 005°21'510.9
2018-Aug-11 19:00N 36°02' W 005°14'22311.7
2018-Aug-10 23:57N 37°20' W 000°53'612.7
2018-Aug-10 23:30N 37°24' W 000°48'612.9
2018-Aug-10 23:00N 37°28' W 000°42'712.8
2018-Aug-10 22:30N 37°33' W 000°36'812.5
2018-Aug-10 21:53N 37°39' W 000°30'512.3
2018-Aug-10 21:29N 37°43' W 000°27'612.4
2018-Aug-10 21:00N 37°48' W 000°22'612.5
2018-Aug-10 20:30N 37°53' W 000°18'21312.1
2018-Aug-10 02:55N 40°58' E 001°59'611.9
2018-Aug-10 02:23N 41°03' E 002°03'411.7
2018-Aug-10 02:00N 41°07' E 002°06'611.6
2018-Aug-10 01:30N 41°12' E 002°10'4 8.9
2018-Aug-10 01:00N 41°17' E 002°11'4 7.3
2018-Aug-10 00:30N 41°20' E 002°10'1 1.0
2018-Aug-09 23:59N 41°21' E 002°09'0 0.0
2018-Aug-09 23:29N 41°21' E 002°09'0 0.0
2018-Aug-09 22:59N 41°21' E 002°09'0 0.0
2018-Aug-09 22:29N 41°21' E 002°09'0 0.0
2018-Aug-09 21:59N 41°21' E 002°09'0 0.0
2018-Aug-09 21:29N 41°21' E 002°09'0 0.0
2018-Aug-09 20:59N 41°21' E 002°09'0 0.0
2018-Aug-09 20:29N 41°21' E 002°09'0 0.0
2018-Aug-09 19:59N 41°21' E 002°09'0 0.0
2018-Aug-09 19:29N 41°21' E 002°09'0 0.0
2018-Aug-09 18:59N 41°21' E 002°09'0 0.0
2018-Aug-09 18:29N 41°21' E 002°09'0 0.0
2018-Aug-09 17:59N 41°21' E 002°09'0 0.0
2018-Aug-09 17:29N 41°21' E 002°09'0 0.0
2018-Aug-09 16:59N 41°21' E 002°09'0 0.0
2018-Aug-09 16:29N 41°21' E 002°09'0 0.0
2018-Aug-09 15:59N 41°21' E 002°09'0 0.0
2018-Aug-09 15:26N 41°21' E 002°09'0 0.0
2018-Aug-09 14:59N 41°21' E 002°09'0 0.0
2018-Aug-09 14:29N 41°21' E 002°09'0 0.0
2018-Aug-09 13:59N 41°21' E 002°09'0 0.0
2018-Aug-09 13:29N 41°21' E 002°09'0 0.0
2018-Aug-09 12:59N 41°21' E 002°09'0 0.0
2018-Aug-09 12:29N 41°21' E 002°09'0 0.0
2018-Aug-09 11:59N 41°21' E 002°09'0 0.0
2018-Aug-09 11:29N 41°21' E 002°09'0 0.0
2018-Aug-09 10:59N 41°21' E 002°09'0 0.0
2018-Aug-09 10:29N 41°21' E 002°09'0 0.0
2018-Aug-09 09:59N 41°21' E 002°09'0 0.0
2018-Aug-09 09:29N 41°21' E 002°09'0 0.0
2018-Aug-09 08:59N 41°21' E 002°09'0 0.0
2018-Aug-09 08:29N 41°21' E 002°09'0 0.0
2018-Aug-09 07:59N 41°21' E 002°09'0 0.0
2018-Aug-09 07:29N 41°21' E 002°09'0 0.0
2018-Aug-09 06:59N 41°21' E 002°09'0 0.0
2018-Aug-09 06:29N 41°21' E 002°09'0 0.0
2018-Aug-09 05:59N 41°21' E 002°09'0 0.0
2018-Aug-09 05:29N 41°21' E 002°09'0 0.0
2018-Aug-09 04:59N 41°21' E 002°09'0 0.0
2018-Aug-09 04:29N 41°21' E 002°09'0 0.0
2018-Aug-09 03:59N 41°21' E 002°09'0 0.0
2018-Aug-09 03:29N 41°21' E 002°09'0 0.0
2018-Aug-09 02:59N 41°21' E 002°09'0 0.0
2018-Aug-09 02:29N 41°21' E 002°09'0 0.0
2018-Aug-09 01:59N 41°21' E 002°09'0 0.0
2018-Aug-09 01:29N 41°21' E 002°09'0 0.0
2018-Aug-09 00:59N 41°21' E 002°09'0 0.0
2018-Aug-09 00:29N 41°21' E 002°09'0 0.0
2018-Aug-08 23:59N 41°21' E 002°09'0 0.0
2018-Aug-08 23:29N 41°21' E 002°09'0 0.0
2018-Aug-08 22:59N 41°21' E 002°09'0 0.0
2018-Aug-08 22:29N 41°21' E 002°09'0 0.0
2018-Aug-08 21:59N 41°21' E 002°09'0 0.0
2018-Aug-08 21:29N 41°21' E 002°09'0 0.0
2018-Aug-08 20:59N 41°21' E 002°09'0 0.0
2018-Aug-08 20:29N 41°21' E 002°09'0 0.0
2018-Aug-08 19:59N 41°21' E 002°09'0 0.0
2018-Aug-08 19:29N 41°21' E 002°09'0 0.0
2018-Aug-08 18:59N 41°21' E 002°09'0 0.0
2018-Aug-08 18:29N 41°21' E 002°09'0 0.0
2018-Aug-08 17:59N 41°21' E 002°09'0 0.0
2018-Aug-08 17:29N 41°21' E 002°09'0 0.0
2018-Aug-08 16:59N 41°21' E 002°09'0 0.0
2018-Aug-08 16:29N 41°21' E 002°09'0 0.0
2018-Aug-08 15:59N 41°21' E 002°09'0 0.0
2018-Aug-08 15:29N 41°21' E 002°09'0 0.0
2018-Aug-08 14:59N 41°21' E 002°09'0 0.0
2018-Aug-08 14:29N 41°21' E 002°09'0 0.0
2018-Aug-08 13:59N 41°21' E 002°09'0 0.0
2018-Aug-08 13:29N 41°21' E 002°09'0 0.0
2018-Aug-08 12:59N 41°21' E 002°09'0 0.0
2018-Aug-08 12:26N 41°21' E 002°09'0 0.0
2018-Aug-08 11:59N 41°21' E 002°09'0 0.0
2018-Aug-08 11:29N 41°21' E 002°09'0 0.0
2018-Aug-08 10:59N 41°21' E 002°09'0 0.0
2018-Aug-08 10:29N 41°21' E 002°09'0 0.0
2018-Aug-08 09:59N 41°21' E 002°09'0 0.0
2018-Aug-08 09:29N 41°21' E 002°09'0 0.0
2018-Aug-08 08:59N 41°21' E 002°09'0 0.0
2018-Aug-08 08:29N 41°21' E 002°09'0 0.0
2018-Aug-08 07:59N 41°21' E 002°09'0 0.0
2018-Aug-08 07:29N 41°21' E 002°09'0 0.0
2018-Aug-08 06:59N 41°21' E 002°09'0 0.0
2018-Aug-08 06:29N 41°21' E 002°09'0 0.0
2018-Aug-08 05:59N 41°21' E 002°09'0 0.0
2018-Aug-08 05:29N 41°21' E 002°09'0 0.0
2018-Aug-08 04:59N 41°21' E 002°09'0 0.0
2018-Aug-08 04:29N 41°21' E 002°09'0 0.0
2018-Aug-08 03:59N 41°21' E 002°09'0 0.0
2018-Aug-08 03:29N 41°21' E 002°09'0 0.0
2018-Aug-08 02:59N 41°21' E 002°09'0 0.0
2018-Aug-08 02:29N 41°21' E 002°09'0 0.0
2018-Aug-08 01:59N 41°21' E 002°09'0 0.0
2018-Aug-08 01:29N 41°21' E 002°09'0 0.0
2018-Aug-08 00:59N 41°21' E 002°09'0 0.0
2018-Aug-08 00:26N 41°21' E 002°09'0 0.0
2018-Aug-07 23:59N 41°21' E 002°09'0 0.0
2018-Aug-07 23:29N 41°21' E 002°09'0 0.0
2018-Aug-07 22:59N 41°21' E 002°09'0 0.0
2018-Aug-07 22:29N 41°21' E 002°09'0 0.0
2018-Aug-07 21:59N 41°21' E 002°09'0 0.0
2018-Aug-07 21:29N 41°21' E 002°09'0 0.0
2018-Aug-07 20:59N 41°21' E 002°09'0 0.0
2018-Aug-07 20:29N 41°21' E 002°09'0 0.0
2018-Aug-07 19:59N 41°21' E 002°09'0 0.0
2018-Aug-07 19:29N 41°21' E 002°09'0 0.0
2018-Aug-07 18:59N 41°21' E 002°09'0 0.0
2018-Aug-07 18:29N 41°21' E 002°09'0 0.0
2018-Aug-07 17:56N 41°21' E 002°09'0 0.0
2018-Aug-07 17:29N 41°21' E 002°09'0 0.0
2018-Aug-07 16:59N 41°21' E 002°09'0 0.0
2018-Aug-07 16:29N 41°21' E 002°09'0 0.0
2018-Aug-07 15:59N 41°21' E 002°09'0 0.0
2018-Aug-07 15:29N 41°21' E 002°09'0 0.0
2018-Aug-07 14:59N 41°21' E 002°09'0 0.0
2018-Aug-07 14:29N 41°21' E 002°09'0 0.0
2018-Aug-07 13:59N 41°21' E 002°09'0 0.0
2018-Aug-07 13:29N 41°21' E 002°09'0 0.0
2018-Aug-07 12:59N 41°21' E 002°09'0 0.0
2018-Aug-07 12:29N 41°21' E 002°09'0 0.0
2018-Aug-07 11:59N 41°21' E 002°09'0 0.0
2018-Aug-07 11:29N 41°21' E 002°09'0 0.0
2018-Aug-07 10:59N 41°21' E 002°09'0 0.0
2018-Aug-07 10:29N 41°21' E 002°09'0 0.0
2018-Aug-07 09:59N 41°21' E 002°09'0 0.0
2018-Aug-07 09:29N 41°21' E 002°09'0 0.0
2018-Aug-07 08:59N 41°21' E 002°09'0 0.0
2018-Aug-07 08:29N 41°21' E 002°09'0 0.0
2018-Aug-07 07:59N 41°21' E 002°09'0 0.0
2018-Aug-07 07:29N 41°21' E 002°09'0 0.0
2018-Aug-07 06:59N 41°21' E 002°09'0 0.0
2018-Aug-07 06:29N 41°21' E 002°09'0 0.0
2018-Aug-07 05:59N 41°21' E 002°09'0 0.0
2018-Aug-07 05:26N 41°21' E 002°09'0 0.0
2018-Aug-07 04:59N 41°21' E 002°09'0 0.0
2018-Aug-07 04:29N 41°21' E 002°09'0 0.0
2018-Aug-07 03:59N 41°21' E 002°09'0 0.0
2018-Aug-07 03:29N 41°21' E 002°09'0 0.0
2018-Aug-07 02:59N 41°21' E 002°09'0 0.0
2018-Aug-07 02:29N 41°21' E 002°09'0 0.0
2018-Aug-07 01:59N 41°21' E 002°09'0 0.0
2018-Aug-07 01:29N 41°21' E 002°09'0 0.0
2018-Aug-07 00:59N 41°21' E 002°09'0 0.0
2018-Aug-07 00:23N 41°21' E 002°09'0 0.0
2018-Aug-06 23:59N 41°21' E 002°09'0 0.0
2018-Aug-06 23:29N 41°21' E 002°09'0 0.0
2018-Aug-06 22:59N 41°21' E 002°09'0 0.0
2018-Aug-06 22:29N 41°21' E 002°09'0 0.0
2018-Aug-06 21:59N 41°21' E 002°09'0 0.0
2018-Aug-06 21:29N 41°21' E 002°09'0 0.0
2018-Aug-06 20:59N 41°21' E 002°09'0 0.0
2018-Aug-06 20:29N 41°21' E 002°09'0 0.0
2018-Aug-06 19:59N 41°21' E 002°09'0 0.0
2018-Aug-06 19:29N 41°21' E 002°09'0 0.0
2018-Aug-06 18:59N 41°21' E 002°09'0 0.0
2018-Aug-06 18:29N 41°21' E 002°09'0 0.0
2018-Aug-06 17:59N 41°21' E 002°09'0 0.0
2018-Aug-06 17:29N 41°21' E 002°09'0 0.0
2018-Aug-06 16:59N 41°21' E 002°09'0 0.0
2018-Aug-06 16:29N 41°21' E 002°09'0 0.0
2018-Aug-06 15:59N 41°21' E 002°09'0 0.0
2018-Aug-06 15:29N 41°21' E 002°09'0 0.0
2018-Aug-06 14:59N 41°21' E 002°09'0 0.0
2018-Aug-06 14:29N 41°21' E 002°09'0 0.0
2018-Aug-06 13:59N 41°21' E 002°09'0 0.0
2018-Aug-06 13:29N 41°21' E 002°09'0 0.0
2018-Aug-06 12:59N 41°21' E 002°09'0 0.0
2018-Aug-06 12:29N 41°21' E 002°09'0 0.0
2018-Aug-06 11:59N 41°21' E 002°09'0 0.0
2018-Aug-06 11:29N 41°21' E 002°09'0 0.0
2018-Aug-06 10:59N 41°21' E 002°09'0 0.0
2018-Aug-06 10:29N 41°21' E 002°09'0 0.0
2018-Aug-06 09:59N 41°21' E 002°09'0 0.0
2018-Aug-06 09:29N 41°21' E 002°09'0 0.0
2018-Aug-06 08:59N 41°21' E 002°09'0 0.0
2018-Aug-06 08:29N 41°21' E 002°09'0 0.0
2018-Aug-06 07:59N 41°21' E 002°09'0 0.0
2018-Aug-06 07:29N 41°21' E 002°09'0 0.0
2018-Aug-06 06:59N 41°21' E 002°09'0 0.0
2018-Aug-06 06:29N 41°21' E 002°09'0 0.0
2018-Aug-06 05:59N 41°21' E 002°09'0 0.0
2018-Aug-06 05:29N 41°21' E 002°09'0 0.0
2018-Aug-06 04:59N 41°21' E 002°09'0 0.0
2018-Aug-06 04:29N 41°21' E 002°09'0 0.0
2018-Aug-06 03:59N 41°21' E 002°09'0 0.0
2018-Aug-06 03:29N 41°21' E 002°09'0 0.0
2018-Aug-06 02:59N 41°21' E 002°09'0 0.0
2018-Aug-06 02:29N 41°21' E 002°09'0 0.0
2018-Aug-06 01:56N 41°21' E 002°09'0 0.0
2018-Aug-06 01:29N 41°21' E 002°09'0 0.0
2018-Aug-06 00:59N 41°21' E 002°09'0 0.0
2018-Aug-06 00:29N 41°21' E 002°09'0 0.0
2018-Aug-05 23:59N 41°21' E 002°09'0 0.0
2018-Aug-05 23:29N 41°21' E 002°09'0 0.0
2018-Aug-05 22:59N 41°21' E 002°09'0 0.0
2018-Aug-05 22:29N 41°21' E 002°09'0 0.0
2018-Aug-05 21:59N 41°21' E 002°09'0 0.0
2018-Aug-05 21:29N 41°21' E 002°09'0 0.0
2018-Aug-05 20:59N 41°21' E 002°09'0 0.0
2018-Aug-05 20:29N 41°21' E 002°09'0 0.0
2018-Aug-05 19:59N 41°21' E 002°09'0 0.0
2018-Aug-05 19:29N 41°21' E 002°09'0 0.0
2018-Aug-05 18:59N 41°21' E 002°09'0 0.0
2018-Aug-05 18:26N 41°21' E 002°09'0 0.0
2018-Aug-05 17:59N 41°21' E 002°09'0 0.0
2018-Aug-05 17:29N 41°21' E 002°09'0 0.0
2018-Aug-05 16:59N 41°21' E 002°09'0 0.0
2018-Aug-05 16:29N 41°21' E 002°09'0 0.0
2018-Aug-05 15:59N 41°21' E 002°09'0 0.0
2018-Aug-05 15:29N 41°21' E 002°09'0 0.0
2018-Aug-05 14:59N 41°21' E 002°09'0 0.0
2018-Aug-05 13:59N 41°21' E 002°09'0 0.0
2018-Aug-05 13:29N 41°21' E 002°09'0 0.0
2018-Aug-05 12:59N 41°21' E 002°09'0 0.0
2018-Aug-05 12:29N 41°21' E 002°09'0 0.0
2018-Aug-05 11:59N 41°21' E 002°09'0 0.0
2018-Aug-05 11:29N 41°21' E 002°09'0 0.0
2018-Aug-05 10:59N 41°21' E 002°09'0 0.0
2018-Aug-05 10:29N 41°21' E 002°09'0 0.0
2018-Aug-05 09:59N 41°21' E 002°09'0 0.0
2018-Aug-05 09:29N 41°21' E 002°09'0 0.0
2018-Aug-05 08:59N 41°21' E 002°09'0 0.0
2018-Aug-05 08:29N 41°21' E 002°09'0 0.0
2018-Aug-05 07:59N 41°21' E 002°09'0 0.0
2018-Aug-05 07:29N 41°21' E 002°09'0 0.0
2018-Aug-05 06:59N 41°21' E 002°09'0 0.0
2018-Aug-05 06:29N 41°21' E 002°09'0 0.0
2018-Aug-05 05:59N 41°21' E 002°09'0 0.0
2018-Aug-05 05:29N 41°21' E 002°09'0 0.0
2018-Aug-05 04:59N 41°21' E 002°09'0 0.0
2018-Aug-05 04:29N 41°21' E 002°09'0 0.0
2018-Aug-05 03:59N 41°21' E 002°09'0 0.0
2018-Aug-05 03:29N 41°21' E 002°09'0 0.0
2018-Aug-05 02:59N 41°21' E 002°09'0 0.0
2018-Aug-05 02:29N 41°21' E 002°09'0 0.0
2018-Aug-05 01:59N 41°21' E 002°09'0 0.0
2018-Aug-05 01:29N 41°21' E 002°09'0 0.0
2018-Aug-05 00:59N 41°21' E 002°09'0 0.0
2018-Aug-05 00:29N 41°21' E 002°09'  
Track history (hours):
 
Tides and Currents Weather Stations Pressure Air Temp Water Temp Dewpoint Dewpoint Depression Visibility Wind Speed Wind Dir Waves Ship Positions

Levanto

Last reported at 2018-Aug-15 00:27 UTC. Time now 2018-Aug-15 03:00 UTC.
Position N 36°22' W 025°60'.

Length 225 m; draft 7.5 m.

Type: Cargo ship. MMSI: 249900000.

Date/timePositionNaut miles runAvg speedWind from/ knotsBaromVisibWave heightAir tempDewpointWater temp
2018-Aug-15 00:27N 36°22' W 025°60'613.6
2018-Aug-14 23:59N 36°22' W 025°52'713.8
2018-Aug-14 23:30N 36°23' W 025°44'713.2
2018-Aug-14 23:00N 36°23' W 025°35'713.6
2018-Aug-14 22:30N 36°23' W 025°27'713.7
2018-Aug-14 22:00N 36°23' W 025°18'713.9
2018-Aug-14 21:30N 36°24' W 025°10'713.7
2018-Aug-14 21:00N 36°24' W 025°01'713.5
2018-Aug-14 20:30N 36°24' W 024°53'713.6
2018-Aug-14 20:00N 36°24' W 024°44'713.5
2018-Aug-14 19:30N 36°25' W 024°36'713.3
2018-Aug-14 19:00N 36°25' W 024°28'713.4
2018-Aug-14 18:30N 36°25' W 024°19'713.3
2018-Aug-14 18:00N 36°25' W 024°11'713.2
2018-Aug-14 17:29N 36°26' W 024°03'2213.2
2018-Aug-14 15:47N 36°26' W 023°35'1113.3
2018-Aug-14 14:57N 36°27' W 023°21'813.3
2018-Aug-14 14:19N 36°27' W 023°11'613.1
2018-Aug-14 13:50N 36°28' W 023°03'513.4
2018-Aug-14 13:30N 36°28' W 022°57'713.3
2018-Aug-14 12:58N 36°28' W 022°48'613.4
2018-Aug-14 12:30N 36°28' W 022°41'813.0
2018-Aug-14 11:52N 36°28' W 022°31'513.1
2018-Aug-14 11:30N 36°29' W 022°25'813.0
2018-Aug-14 10:53N 36°29' W 022°15'513.1
2018-Aug-14 10:29N 36°29' W 022°08'613.2
2018-Aug-14 09:59N 36°29' W 021°60'3013.2
2018-Aug-14 07:43N 36°31' W 021°23'313.5
2018-Aug-14 07:30N 36°31' W 021°19'35613.2
2018-Aug-13 04:27N 36°13' W 013°57'15912.9
2018-Aug-12 16:04N 36°02' W 010°41'612.3
2018-Aug-12 15:36N 36°02' W 010°33'112.3
2018-Aug-12 15:30N 36°02' W 010°32'712.5
2018-Aug-12 14:57N 36°01' W 010°23'612.5
2018-Aug-12 14:28N 36°01' W 010°16'612.0
2018-Aug-12 13:59N 36°00' W 010°09'612.1
2018-Aug-12 13:29N 36°00' W 010°01'711.8
2018-Aug-12 12:53N 35°60' W 009°53'411.6
2018-Aug-12 12:30N 35°60' W 009°47'611.7
2018-Aug-12 12:00N 35°59' W 009°40'611.5
2018-Aug-12 11:29N 35°59' W 009°33'611.7
2018-Aug-12 11:00N 35°59' W 009°26'611.9
2018-Aug-12 10:28N 35°59' W 009°18'811.8
2018-Aug-12 09:46N 35°59' W 009°08'411.8
2018-Aug-12 09:23N 35°59' W 009°02'16013.2
2018-Aug-11 21:16N 35°57' W 005°44'513.0
2018-Aug-11 20:55N 35°57' W 005°38'512.0
2018-Aug-11 20:29N 35°58' W 005°32'510.4
2018-Aug-11 20:00N 35°60' W 005°26'5 9.4
2018-Aug-11 19:31N 36°01' W 005°21'510.9
2018-Aug-11 19:00N 36°02' W 005°14'22311.7
2018-Aug-10 23:57N 37°20' W 000°53'612.7
2018-Aug-10 23:30N 37°24' W 000°48'612.9
2018-Aug-10 23:00N 37°28' W 000°42'712.8
2018-Aug-10 22:30N 37°33' W 000°36'812.5
2018-Aug-10 21:53N 37°39' W 000°30'512.3
2018-Aug-10 21:29N 37°43' W 000°27'612.4
2018-Aug-10 21:00N 37°48' W 000°22'612.5
2018-Aug-10 20:30N 37°53' W 000°18'21312.1
2018-Aug-10 02:55N 40°58' E 001°59'611.9
2018-Aug-10 02:23N 41°03' E 002°03'411.7
2018-Aug-10 02:00N 41°07' E 002°06'611.6
2018-Aug-10 01:30N 41°12' E 002°10'4 8.9
2018-Aug-10 01:00N 41°17' E 002°11'4 7.3
2018-Aug-10 00:30N 41°20' E 002°10'1 1.0
2018-Aug-09 23:59N 41°21' E 002°09'0 0.0
2018-Aug-09 23:29N 41°21' E 002°09'0 0.0
2018-Aug-09 22:59N 41°21' E 002°09'0 0.0
2018-Aug-09 22:29N 41°21' E 002°09'0 0.0
2018-Aug-09 21:59N 41°21' E 002°09'0 0.0
2018-Aug-09 21:29N 41°21' E 002°09'0 0.0
2018-Aug-09 20:59N 41°21' E 002°09'0 0.0
2018-Aug-09 20:29N 41°21' E 002°09'0 0.0
2018-Aug-09 19:59N 41°21' E 002°09'0 0.0
2018-Aug-09 19:29N 41°21' E 002°09'0 0.0
2018-Aug-09 18:59N 41°21' E 002°09'0 0.0
2018-Aug-09 18:29N 41°21' E 002°09'0 0.0
2018-Aug-09 17:59N 41°21' E 002°09'0 0.0
2018-Aug-09 17:29N 41°21' E 002°09'0 0.0
2018-Aug-09 16:59N 41°21' E 002°09'0 0.0
2018-Aug-09 16:29N 41°21' E 002°09'0 0.0
2018-Aug-09 15:59N 41°21' E 002°09'0 0.0
2018-Aug-09 15:26N 41°21' E 002°09'0 0.0
2018-Aug-09 14:59N 41°21' E 002°09'0 0.0
2018-Aug-09 14:29N 41°21' E 002°09'0 0.0
2018-Aug-09 13:59N 41°21' E 002°09'0 0.0
2018-Aug-09 13:29N 41°21' E 002°09'0 0.0
2018-Aug-09 12:59N 41°21' E 002°09'0 0.0
2018-Aug-09 12:29N 41°21' E 002°09'0 0.0
2018-Aug-09 11:59N 41°21' E 002°09'0 0.0
2018-Aug-09 11:29N 41°21' E 002°09'0 0.0
2018-Aug-09 10:59N 41°21' E 002°09'0 0.0
2018-Aug-09 10:29N 41°21' E 002°09'0 0.0
2018-Aug-09 09:59N 41°21' E 002°09'0 0.0
2018-Aug-09 09:29N 41°21' E 002°09'0 0.0
2018-Aug-09 08:59N 41°21' E 002°09'0 0.0
2018-Aug-09 08:29N 41°21' E 002°09'0 0.0
2018-Aug-09 07:59N 41°21' E 002°09'0 0.0
2018-Aug-09 07:29N 41°21' E 002°09'0 0.0
2018-Aug-09 06:59N 41°21' E 002°09'0 0.0
2018-Aug-09 06:29N 41°21' E 002°09'0 0.0
2018-Aug-09 05:59N 41°21' E 002°09'0 0.0
2018-Aug-09 05:29N 41°21' E 002°09'0 0.0
2018-Aug-09 04:59N 41°21' E 002°09'0 0.0
2018-Aug-09 04:29N 41°21' E 002°09'0 0.0
2018-Aug-09 03:59N 41°21' E 002°09'0 0.0
2018-Aug-09 03:29N 41°21' E 002°09'0 0.0
2018-Aug-09 02:59N 41°21' E 002°09'0 0.0
2018-Aug-09 02:29N 41°21' E 002°09'0 0.0
2018-Aug-09 01:59N 41°21' E 002°09'0 0.0
2018-Aug-09 01:29N 41°21' E 002°09'0 0.0
2018-Aug-09 00:59N 41°21' E 002°09'0 0.0
2018-Aug-09 00:29N 41°21' E 002°09'0 0.0
2018-Aug-08 23:59N 41°21' E 002°09'0 0.0
2018-Aug-08 23:29N 41°21' E 002°09'0 0.0
2018-Aug-08 22:59N 41°21' E 002°09'0 0.0
2018-Aug-08 22:29N 41°21' E 002°09'0 0.0
2018-Aug-08 21:59N 41°21' E 002°09'0 0.0
2018-Aug-08 21:29N 41°21' E 002°09'0 0.0
2018-Aug-08 20:59N 41°21' E 002°09'0 0.0
2018-Aug-08 20:29N 41°21' E 002°09'0 0.0
2018-Aug-08 19:59N 41°21' E 002°09'0 0.0
2018-Aug-08 19:29N 41°21' E 002°09'0 0.0
2018-Aug-08 18:59N 41°21' E 002°09'0 0.0
2018-Aug-08 18:29N 41°21' E 002°09'0 0.0
2018-Aug-08 17:59N 41°21' E 002°09'0 0.0
2018-Aug-08 17:29N 41°21' E 002°09'0 0.0
2018-Aug-08 16:59N 41°21' E 002°09'0 0.0
2018-Aug-08 16:29N 41°21' E 002°09'0 0.0
2018-Aug-08 15:59N 41°21' E 002°09'0 0.0
2018-Aug-08 15:29N 41°21' E 002°09'0 0.0
2018-Aug-08 14:59N 41°21' E 002°09'0 0.0
2018-Aug-08 14:29N 41°21' E 002°09'0 0.0
2018-Aug-08 13:59N 41°21' E 002°09'0 0.0
2018-Aug-08 13:29N 41°21' E 002°09'0 0.0
2018-Aug-08 12:59N 41°21' E 002°09'0 0.0
2018-Aug-08 12:26N 41°21' E 002°09'0 0.0
2018-Aug-08 11:59N 41°21' E 002°09'0 0.0
2018-Aug-08 11:29N 41°21' E 002°09'0 0.0
2018-Aug-08 10:59N 41°21' E 002°09'0 0.0
2018-Aug-08 10:29N 41°21' E 002°09'0 0.0
2018-Aug-08 09:59N 41°21' E 002°09'0 0.0
2018-Aug-08 09:29N 41°21' E 002°09'0 0.0
2018-Aug-08 08:59N 41°21' E 002°09'0 0.0
2018-Aug-08 08:29N 41°21' E 002°09'0 0.0
2018-Aug-08 07:59N 41°21' E 002°09'0 0.0
2018-Aug-08 07:29N 41°21' E 002°09'0 0.0
2018-Aug-08 06:59N 41°21' E 002°09'0 0.0
2018-Aug-08 06:29N 41°21' E 002°09'0 0.0
2018-Aug-08 05:59N 41°21' E 002°09'0 0.0
2018-Aug-08 05:29N 41°21' E 002°09'0 0.0
2018-Aug-08 04:59N 41°21' E 002°09'0 0.0
2018-Aug-08 04:29N 41°21' E 002°09'0 0.0
2018-Aug-08 03:59N 41°21' E 002°09'0 0.0
2018-Aug-08 03:29N 41°21' E 002°09'0 0.0
2018-Aug-08 02:59N 41°21' E 002°09'0 0.0
2018-Aug-08 02:29N 41°21' E 002°09'0 0.0
2018-Aug-08 01:59N 41°21' E 002°09'0 0.0
2018-Aug-08 01:29N 41°21' E 002°09'0 0.0
2018-Aug-08 00:59N 41°21' E 002°09'0 0.0
2018-Aug-08 00:26N 41°21' E 002°09'0 0.0
2018-Aug-07 23:59N 41°21' E 002°09'0 0.0
2018-Aug-07 23:29N 41°21' E 002°09'0 0.0
2018-Aug-07 22:59N 41°21' E 002°09'0 0.0
2018-Aug-07 22:29N 41°21' E 002°09'0 0.0
2018-Aug-07 21:59N 41°21' E 002°09'0 0.0
2018-Aug-07 21:29N 41°21' E 002°09'0 0.0
2018-Aug-07 20:59N 41°21' E 002°09'0 0.0
2018-Aug-07 20:29N 41°21' E 002°09'0 0.0
2018-Aug-07 19:59N 41°21' E 002°09'0 0.0
2018-Aug-07 19:29N 41°21' E 002°09'0 0.0
2018-Aug-07 18:59N 41°21' E 002°09'0 0.0
2018-Aug-07 18:29N 41°21' E 002°09'0 0.0
2018-Aug-07 17:56N 41°21' E 002°09'0 0.0
2018-Aug-07 17:29N 41°21' E 002°09'0 0.0
2018-Aug-07 16:59N 41°21' E 002°09'0 0.0
2018-Aug-07 16:29N 41°21' E 002°09'0 0.0
2018-Aug-07 15:59N 41°21' E 002°09'0 0.0
2018-Aug-07 15:29N 41°21' E 002°09'0 0.0
2018-Aug-07 14:59N 41°21' E 002°09'0 0.0
2018-Aug-07 14:29N 41°21' E 002°09'0 0.0
2018-Aug-07 13:59N 41°21' E 002°09'0 0.0
2018-Aug-07 13:29N 41°21' E 002°09'0 0.0
2018-Aug-07 12:59N 41°21' E 002°09'0 0.0
2018-Aug-07 12:29N 41°21' E 002°09'0 0.0
2018-Aug-07 11:59N 41°21' E 002°09'0 0.0
2018-Aug-07 11:29N 41°21' E 002°09'0 0.0
2018-Aug-07 10:59N 41°21' E 002°09'0 0.0
2018-Aug-07 10:29N 41°21' E 002°09'0 0.0
2018-Aug-07 09:59N 41°21' E 002°09'0 0.0
2018-Aug-07 09:29N 41°21' E 002°09'0 0.0
2018-Aug-07 08:59N 41°21' E 002°09'0 0.0
2018-Aug-07 08:29N 41°21' E 002°09'0 0.0
2018-Aug-07 07:59N 41°21' E 002°09'0 0.0
2018-Aug-07 07:29N 41°21' E 002°09'0 0.0
2018-Aug-07 06:59N 41°21' E 002°09'0 0.0
2018-Aug-07 06:29N 41°21' E 002°09'0 0.0
2018-Aug-07 05:59N 41°21' E 002°09'0 0.0
2018-Aug-07 05:26N 41°21' E 002°09'0 0.0
2018-Aug-07 04:59N 41°21' E 002°09'0 0.0
2018-Aug-07 04:29N 41°21' E 002°09'0 0.0
2018-Aug-07 03:59N 41°21' E 002°09'0 0.0
2018-Aug-07 03:29N 41°21' E 002°09'0 0.0
2018-Aug-07 02:59N 41°21' E 002°09'0 0.0
2018-Aug-07 02:29N 41°21' E 002°09'0 0.0
2018-Aug-07 01:59N 41°21' E 002°09'0 0.0
2018-Aug-07 01:29N 41°21' E 002°09'0 0.0
2018-Aug-07 00:59N 41°21' E 002°09'0 0.0
2018-Aug-07 00:23N 41°21' E 002°09'0 0.0
2018-Aug-06 23:59N 41°21' E 002°09'0 0.0
2018-Aug-06 23:29N 41°21' E 002°09'0 0.0
2018-Aug-06 22:59N 41°21' E 002°09'0 0.0
2018-Aug-06 22:29N 41°21' E 002°09'0 0.0
2018-Aug-06 21:59N 41°21' E 002°09'0 0.0
2018-Aug-06 21:29N 41°21' E 002°09'0 0.0
2018-Aug-06 20:59N 41°21' E 002°09'0 0.0
2018-Aug-06 20:29N 41°21' E 002°09'0 0.0
2018-Aug-06 19:59N 41°21' E 002°09'0 0.0
2018-Aug-06 19:29N 41°21' E 002°09'0 0.0
2018-Aug-06 18:59N 41°21' E 002°09'0 0.0
2018-Aug-06 18:29N 41°21' E 002°09'0 0.0
2018-Aug-06 17:59N 41°21' E 002°09'0 0.0
2018-Aug-06 17:29N 41°21' E 002°09'0 0.0
2018-Aug-06 16:59N 41°21' E 002°09'0 0.0
2018-Aug-06 16:29N 41°21' E 002°09'0 0.0
2018-Aug-06 15:59N 41°21' E 002°09'0 0.0
2018-Aug-06 15:29N 41°21' E 002°09'0 0.0
2018-Aug-06 14:59N 41°21' E 002°09'0 0.0
2018-Aug-06 14:29N 41°21' E 002°09'0 0.0
2018-Aug-06 13:59N 41°21' E 002°09'0 0.0
2018-Aug-06 13:29N 41°21' E 002°09'0 0.0
2018-Aug-06 12:59N 41°21' E 002°09'0 0.0
2018-Aug-06 12:29N 41°21' E 002°09'0 0.0
2018-Aug-06 11:59N 41°21' E 002°09'0 0.0
2018-Aug-06 11:29N 41°21' E 002°09'0 0.0
2018-Aug-06 10:59N 41°21' E 002°09'0 0.0
2018-Aug-06 10:29N 41°21' E 002°09'0 0.0
2018-Aug-06 09:59N 41°21' E 002°09'0 0.0
2018-Aug-06 09:29N 41°21' E 002°09'0 0.0
2018-Aug-06 08:59N 41°21' E 002°09'0 0.0
2018-Aug-06 08:29N 41°21' E 002°09'0 0.0
2018-Aug-06 07:59N 41°21' E 002°09'0 0.0
2018-Aug-06 07:29N 41°21' E 002°09'0 0.0
2018-Aug-06 06:59N 41°21' E 002°09'0 0.0
2018-Aug-06 06:29N 41°21' E 002°09'0 0.0
2018-Aug-06 05:59N 41°21' E 002°09'0 0.0
2018-Aug-06 05:29N 41°21' E 002°09'0 0.0
2018-Aug-06 04:59N 41°21' E 002°09'0 0.0
2018-Aug-06 04:29N 41°21' E 002°09'0 0.0
2018-Aug-06 03:59N 41°21' E 002°09'0 0.0
2018-Aug-06 03:29N 41°21' E 002°09'0 0.0
2018-Aug-06 02:59N 41°21' E 002°09'0 0.0
2018-Aug-06 02:29N 41°21' E 002°09'0 0.0
2018-Aug-06 01:56N 41°21' E 002°09'0 0.0
2018-Aug-06 01:29N 41°21' E 002°09'0 0.0
2018-Aug-06 00:59N 41°21' E 002°09'0 0.0
2018-Aug-06 00:29N 41°21' E 002°09'0 0.0
2018-Aug-05 23:59N 41°21' E 002°09'0 0.0
2018-Aug-05 23:29N 41°21' E 002°09'0 0.0
2018-Aug-05 22:59N 41°21' E 002°09'0 0.0
2018-Aug-05 22:29N 41°21' E 002°09'0 0.0
2018-Aug-05 21:59N 41°21' E 002°09'0 0.0
2018-Aug-05 21:29N 41°21' E 002°09'0 0.0
2018-Aug-05 20:59N 41°21' E 002°09'0 0.0
2018-Aug-05 20:29N 41°21' E 002°09'0 0.0
2018-Aug-05 19:59N 41°21' E 002°09'0 0.0
2018-Aug-05 19:29N 41°21' E 002°09'0 0.0
2018-Aug-05 18:59N 41°21' E 002°09'0 0.0
2018-Aug-05 18:26N 41°21' E 002°09'0 0.0
2018-Aug-05 17:59N 41°21' E 002°09'0 0.0
2018-Aug-05 17:29N 41°21' E 002°09'0 0.0
2018-Aug-05 16:59N 41°21' E 002°09'0 0.0
2018-Aug-05 16:29N 41°21' E 002°09'0 0.0
2018-Aug-05 15:59N 41°21' E 002°09'0 0.0
2018-Aug-05 15:29N 41°21' E 002°09'0 0.0
2018-Aug-05 14:59N 41°21' E 002°09'0 0.0
2018-Aug-05 13:59N 41°21' E 002°09'0 0.0
2018-Aug-05 13:29N 41°21' E 002°09'0 0.0
2018-Aug-05 12:59N 41°21' E 002°09'0 0.0
2018-Aug-05 12:29N 41°21' E 002°09'0 0.0
2018-Aug-05 11:59N 41°21' E 002°09'0 0.0
2018-Aug-05 11:29N 41°21' E 002°09'0 0.0
2018-Aug-05 10:59N 41°21' E 002°09'0 0.0
2018-Aug-05 10:29N 41°21' E 002°09'0 0.0
2018-Aug-05 09:59N 41°21' E 002°09'0 0.0
2018-Aug-05 09:29N 41°21' E 002°09'0 0.0
2018-Aug-05 08:59N 41°21' E 002°09'0 0.0
2018-Aug-05 08:29N 41°21' E 002°09'0 0.0
2018-Aug-05 07:59N 41°21' E 002°09'0 0.0
2018-Aug-05 07:29N 41°21' E 002°09'0 0.0
2018-Aug-05 06:59N 41°21' E 002°09'0 0.0
2018-Aug-05 06:29N 41°21' E 002°09'0 0.0
2018-Aug-05 05:59N 41°21' E 002°09'0 0.0
2018-Aug-05 05:29N 41°21' E 002°09'0 0.0
2018-Aug-05 04:59N 41°21' E 002°09'0 0.0
2018-Aug-05 04:29N 41°21' E 002°09'0 0.0
2018-Aug-05 03:59N 41°21' E 002°09'0 0.0
2018-Aug-05 03:29N 41°21' E 002°09'0 0.0
2018-Aug-05 02:59N 41°21' E 002°09'0 0.0
2018-Aug-05 02:29N 41°21' E 002°09'0 0.0
2018-Aug-05 01:59N 41°21' E 002°09'0 0.0
2018-Aug-05 01:29N 41°21' E 002°09'0 0.0
2018-Aug-05 00:59N 41°21' E 002°09'0 0.0
2018-Aug-05 00:29N 41°21' E 002°09'  

Dump ship's entire track history